Time;durP1;ratioP1;P1;durP2;ratioP2;P2;SDS_P1;SDS_P2;PMS_P1;PMS_P2;Temp;Humidity;BMP_temperature;BMP_pressure;BME280_temperature;BME280_humidity;BME280_pressure;Samples;Min_cycle;Max_cycle;Signal;HPM_P1;HPM_P2
2024/04/20 00:04:38;;;;;;;0.45;0.25;;;5.50;90.40;;;;;;22596124;26;20023;-37
2024/04/20 00:14:40;;;;;;;0.47;0.20;;;5.50;90.10;;;;;;22705809;26;20026;-38
2024/04/20 00:24:49;;;;;;;2.45;0.70;;;5.40;90.20;;;;;;22703125;26;20030;-37
2024/04/20 00:34:55;;;;;;;1.13;0.40;;;4.70;90.90;;;;;;22651247;26;20097;-38
2024/04/20 00:44:56;;;;;;;1.50;0.90;;;4.20;91.60;;;;;;22704319;26;20084;-37
2024/04/20 00:55:00;;;;;;;1.00;0.63;;;3.70;92.30;;;;;;22651186;26;20068;-38
2024/04/20 01:05:02;;;;;;;1.15;0.60;;;2.90;94.40;;;;;;22702646;26;20068;-38
2024/04/20 01:15:04;;;;;;;3.30;0.60;;;2.20;96.20;;;;;;22390447;26;20050;-38
2024/04/20 01:25:08;;;;;;;2.15;0.60;;;1.60;97.10;;;;;;22293679;26;20004;-37
2024/04/20 01:35:10;;;;;;;1.05;0.50;;;1.40;98.10;;;;;;22263988;26;20041;-37
2024/04/20 01:45:15;;;;;;;1.70;0.60;;;1.40;97.90;;;;;;22619933;26;20041;-38
2024/04/20 01:55:16;;;;;;;1.25;0.50;;;1.50;97.50;;;;;;22662133;26;20124;-38
2024/04/20 02:05:18;;;;;;;0.70;0.20;;;1.30;97.60;;;;;;22603047;26;20026;-38
2024/04/20 02:15:20;;;;;;;2.00;1.08;;;1.20;98.00;;;;;;22636659;26;20035;-38
2024/04/20 02:25:22;;;;;;;1.75;0.95;;;1.50;97.10;;;;;;22647999;26;20038;-38
2024/04/20 02:35:24;;;;;;;0.55;0.38;;;1.50;97.10;;;;;;22663336;26;20377;-38
2024/04/20 02:45:27;;;;;;;1.15;0.70;;;1.50;98.20;;;;;;22712617;26;20030;-38
2024/04/20 02:55:29;;;;;;;1.10;0.60;;;1.30;97.60;;;;;;22659144;26;20091;-38
2024/04/20 03:05:33;;;;;;;2.60;1.00;;;1.50;97.40;;;;;;22678334;26;20027;-37
2024/04/20 03:15:34;;;;;;;1.80;0.77;;;1.20;97.70;;;;;;22563200;26;20058;-39
2024/04/20 03:25:36;;;;;;;1.80;0.95;;;1.10;98.00;;;;;;22648674;26;20022;-38
2024/04/20 03:35:38;;;;;;;1.30;0.90;;;0.80;99.00;;;;;;22708878;26;20452;-37
2024/04/20 03:45:40;;;;;;;2.58;1.38;;;0.60;99.30;;;;;;22645205;26;20023;-38
2024/04/20 03:55:42;;;;;;;3.22;1.38;;;0.90;98.80;;;;;;22647237;26;20818;-37
2024/04/20 04:05:44;;;;;;;3.28;1.55;;;1.80;97.50;;;;;;22550955;26;20035;-38
2024/04/20 04:15:46;;;;;;;3.33;1.52;;;2.10;96.80;;;;;;22535895;26;20105;-38
2024/04/20 04:25:49;;;;;;;2.15;1.05;;;2.40;96.70;;;;;;22549049;26;20100;-38
2024/04/20 04:35:58;;;;;;;2.67;1.27;;;2.70;95.70;;;;;;22572735;26;20116;-38
2024/04/20 04:45:59;;;;;;;2.22;1.10;;;2.70;95.80;;;;;;22648900;26;20413;-38
2024/04/20 04:56:04;;;;;;;1.92;1.25;;;2.50;96.90;;;;;;22561315;26;20031;-38
2024/04/20 05:06:06;;;;;;;1.65;1.02;;;2.50;96.90;;;;;;22572405;26;20069;-37
2024/04/20 05:16:08;;;;;;;1.65;0.80;;;2.60;97.20;;;;;;22548935;26;20109;-38
2024/04/20 05:26:10;;;;;;;1.00;0.60;;;2.90;96.80;;;;;;22629030;26;20369;-38
2024/04/20 05:36:12;;;;;;;0.47;0.30;;;3.30;96.40;;;;;;22547518;26;20030;-38
2024/04/20 05:46:14;;;;;;;0.40;0.30;;;3.70;95.80;;;;;;22545456;26;20026;-37
2024/04/20 05:56:16;;;;;;;0.50;0.30;;;3.80;95.40;;;;;;22547650;26;20031;-38
2024/04/20 06:06:18;;;;;;;0.17;0.10;;;3.80;95.40;;;;;;22550081;26;20030;-38
2024/04/20 06:16:20;;;;;;;0.55;0.22;;;3.70;95.10;;;;;;22560000;26;20030;-38
2024/04/20 06:26:23;;;;;;;0.20;0.20;;;3.80;95.20;;;;;;22562884;26;20062;-39
2024/04/20 06:36:25;;;;;;;0.50;0.30;;;3.90;96.60;;;;;;22531621;26;20088;-38
2024/04/20 06:46:27;;;;;;;0.65;0.40;;;5.50;94.40;;;;;;22560656;26;20096;-40
2024/04/20 06:56:29;;;;;;;0.10;0.10;;;6.40;93.50;;;;;;22663588;26;20029;-39
2024/04/20 07:06:31;;;;;;;0.20;0.10;;;6.70;92.00;;;;;;22542667;26;20027;-39
2024/04/20 07:16:33;;;;;;;0.38;0.10;;;6.80;91.00;;;;;;22555143;26;20097;-39
2024/04/20 07:26:36;;;;;;;0.10;0.08;;;7.10;91.30;;;;;;22499356;26;20007;-39
2024/04/20 07:36:38;;;;;;;1.45;0.10;;;7.40;89.90;;;;;;22578356;26;20050;-39
2024/04/20 07:46:43;;;;;;;0.10;0.10;;;7.40;90.50;;;;;;22554953;26;20027;-38
2024/04/20 07:56:45;;;;;;;0.20;0.03;;;7.60;86.80;;;;;;22548478;26;20030;-40
2024/04/20 08:06:47;;;;;;;0.00;0.00;;;7.60;85.60;;;;;;22459592;26;20097;-39
2024/04/20 08:16:48;;;;;;;0.43;0.10;;;8.50;87.80;;;;;;22532869;26;20194;-38
2024/04/20 08:26:55;;;;;;;0.25;0.00;;;8.50;85.90;;;;;;22557467;26;20013;-39
2024/04/20 08:36:57;;;;;;;0.77;0.13;;;7.70;84.30;;;;;;22588371;26;20034;-39
2024/04/20 08:47:00;;;;;;;0.22;0.10;;;7.80;86.60;;;;;;22622856;26;20092;-39
2024/04/20 08:57:03;;;;;;;0.52;0.10;;;8.10;89.20;;;;;;22554334;26;20488;-39
2024/04/20 09:07:05;;;;;;;0.35;0.10;;;8.40;90.70;;;;;;22551628;26;20097;-39
2024/04/20 09:17:07;;;;;;;0.65;0.00;;;8.50;86.70;;;;;;22545803;26;20377;-39
2024/04/20 09:27:12;;;;;;;0.17;0.03;;;8.70;85.70;;;;;;22546190;26;20011;-39
2024/04/20 09:37:14;;;;;;;0.40;0.10;;;9.20;82.60;;;;;;22547503;26;20106;-39
2024/04/20 09:47:19;;;;;;;0.00;0.00;;;11.00;76.60;;;;;;22522094;26;20050;-39
2024/04/20 09:57:23;;;;;;;0.00;0.00;;;10.00;80.50;;;;;;22564439;26;20050;-38
2024/04/20 10:07:32;;;;;;;1.58;0.00;;;8.60;80.10;;;;;;22559219;26;20017;-39
2024/04/20 10:17:37;;;;;;;0.03;0.00;;;9.30;76.80;;;;;;22556198;26;20030;-41
2024/04/20 10:27:39;;;;;;;0.15;0.00;;;9.60;83.00;;;;;;22556436;26;20116;-39
2024/04/20 10:37:41;;;;;;;0.10;0.00;;;9.50;76.10;;;;;;22529238;26;20957;-38
2024/04/20 10:47:45;;;;;;;1.38;0.00;;;9.60;73.20;;;;;;22554855;26;20038;-39
2024/04/20 10:57:47;;;;;;;0.22;0.10;;;10.00;75.40;;;;;;22559122;26;20043;-39
2024/04/20 11:08:00;;;;;;;0.00;0.00;;;9.30;80.20;;;;;;22559066;26;20039;-39
2024/04/20 11:18:02;;;;;;;0.00;0.00;;;8.80;79.70;;;;;;22555718;26;20086;-38
2024/04/20 11:28:08;;;;;;;1.95;0.10;;;10.10;74.80;;;;;;22512826;26;20007;-38
2024/04/20 11:38:10;;;;;;;0.15;0.05;;;8.80;76.20;;;;;;22553014;26;20027;-42
2024/04/20 11:48:11;;;;;;;0.32;0.00;;;10.00;79.90;;;;;;22550946;26;20057;-38
2024/04/20 11:58:13;;;;;;;0.10;0.00;;;10.30;73.70;;;;;;22551478;26;20104;-38
2024/04/20 12:08:15;;;;;;;0.08;0.00;;;8.30;73.90;;;;;;22551145;26;20038;-39
2024/04/20 12:18:17;;;;;;;0.25;0.10;;;9.00;77.90;;;;;;22552435;26;20038;-39
2024/04/20 12:28:19;;;;;;;0.15;0.00;;;9.00;75.60;;;;;;22601678;26;20069;-39
2024/04/20 12:38:22;;;;;;;0.15;0.00;;;9.10;73.40;;;;;;22551802;26;20035;-38
2024/04/20 12:48:29;;;;;;;0.22;0.00;;;10.20;69.20;;;;;;22514656;26;20003;-38
2024/04/20 12:58:31;;;;;;;0.00;0.00;;;8.20;69.60;;;;;;22549993;26;20030;-39
2024/04/20 13:08:34;;;;;;;0.35;0.00;;;7.90;74.30;;;;;;22550234;26;20026;-38
2024/04/20 13:18:37;;;;;;;0.70;0.10;;;8.70;67.60;;;;;;22548798;26;20558;-38
2024/04/20 13:28:39;;;;;;;0.05;0.00;;;7.60;68.20;;;;;;22552081;26;20373;-38
2024/04/20 13:38:40;;;;;;;0.10;0.00;;;7.50;70.30;;;;;;22544574;26;20038;-38
2024/04/20 13:48:42;;;;;;;0.10;0.00;;;7.30;69.60;;;;;;22541668;26;20035;-38
2024/04/20 13:58:44;;;;;;;0.00;0.00;;;7.20;71.90;;;;;;22543534;26;20030;-39
2024/04/20 14:08:46;;;;;;;0.00;0.00;;;7.00;70.30;;;;;;22545544;26;20027;-38
2024/04/20 14:18:49;;;;;;;0.00;0.00;;;7.30;71.30;;;;;;22545170;26;20031;-38
2024/04/20 14:28:50;;;;;;;0.17;0.00;;;7.40;69.60;;;;;;22588587;26;20054;-38
2024/04/20 14:38:52;;;;;;;0.05;0.05;;;7.40;66.20;;;;;;22559186;26;20022;-38
2024/04/20 14:48:54;;;;;;;1.13;0.00;;;7.70;76.20;;;;;;22555118;26;20027;-39
2024/04/20 14:58:56;;;;;;;0.00;0.00;;;8.20;70.50;;;;;;22556724;26;20035;-38
2024/04/20 15:08:58;;;;;;;0.00;0.00;;;7.80;67.80;;;;;;22560758;26;20031;-38
2024/04/20 15:19:00;;;;;;;0.73;0.13;;;8.20;66.00;;;;;;22543744;26;20069;-39
2024/04/20 15:29:02;;;;;;;0.28;0.00;;;8.00;67.80;;;;;;22555070;26;20062;-38
2024/04/20 15:39:03;;;;;;;0.10;0.00;;;8.40;69.60;;;;;;22556514;26;20031;-39
2024/04/20 15:49:05;;;;;;;1.88;0.20;;;8.30;69.10;;;;;;22550775;26;20026;-39
2024/04/20 15:59:07;;;;;;;8.75;0.52;;;8.10;83.10;;;;;;22541476;26;20468;-39
2024/04/20 16:09:09;;;;;;;1.08;0.40;;;7.70;90.10;;;;;;22521022;26;20031;-38
2024/04/20 16:19:11;;;;;;;0.93;0.57;;;7.00;94.60;;;;;;22553558;26;20038;-38
2024/04/20 16:29:13;;;;;;;1.02;0.80;;;5.80;97.50;;;;;;22534027;26;20028;-38
2024/04/20 16:39:15;;;;;;;3.75;0.60;;;5.00;99.60;;;;;;22508226;26;20030;-39
2024/04/20 16:49:16;;;;;;;1.35;0.70;;;4.90;99.90;;;;;;22507681;26;20031;-38
2024/04/20 16:59:18;;;;;;;1.65;0.93;;;5.10;99.90;;;;;;22318444;26;20029;-39
2024/04/20 17:09:20;;;;;;;1.70;1.00;;;5.10;99.90;;;;;;22382648;26;20027;-38
2024/04/20 17:19:22;;;;;;;6.70;3.85;;;4.50;99.90;;;;;;22402612;26;20091;-38
2024/04/20 17:29:24;;;;;;;2.17;1.27;;;3.50;99.90;;;;;;22402600;26;20079;-38
2024/04/20 17:39:26;;;;;;;3.03;1.73;;;3.00;99.90;;;;;;22622157;26;20491;-38
2024/04/20 17:49:28;;;;;;;3.35;2.10;;;2.40;99.90;;;;;;22651266;26;20361;-38
2024/04/20 17:59:30;;;;;;;2.92;1.65;;;2.00;99.90;;;;;;22607617;26;20546;-38
2024/04/20 18:09:31;;;;;;;2.45;1.30;;;1.70;99.90;;;;;;22595097;26;20492;-38
2024/04/20 18:19:34;;;;;;;3.35;2.20;;;1.50;99.90;;;;;;22562838;26;20031;-38
2024/04/20 18:29:36;;;;;;;2.88;1.33;;;1.30;99.90;;;;;;22647630;26;20035;-38
2024/04/20 18:39:38;;;;;;;0.10;0.00;;;1.30;99.90;;;;;;22621066;26;20026;-39
2024/04/20 18:49:42;;;;;;;0.22;0.00;;;1.80;97.80;;;;;;22529593;26;20078;-39
2024/04/20 18:59:44;;;;;;;0.73;0.10;;;2.70;94.10;;;;;;22669930;26;20089;-38
2024/04/20 19:09:47;;;;;;;0.20;0.00;;;3.10;91.30;;;;;;22634595;26;20037;-38
2024/04/20 19:19:51;;;;;;;0.00;0.00;;;3.60;86.10;;;;;;22676833;26;20073;-38
2024/04/20 19:29:53;;;;;;;0.63;0.10;;;3.60;84.40;;;;;;22674348;26;20034;-39
2024/04/20 19:39:55;;;;;;;0.20;0.00;;;3.40;85.50;;;;;;22629399;26;20030;-38
2024/04/20 19:49:57;;;;;;;0.00;0.00;;;3.50;83.20;;;;;;22655534;26;20082;-38
2024/04/20 20:00:02;;;;;;;0.00;0.00;;;3.60;82.60;;;;;;22706869;26;20026;-38
2024/04/20 20:10:08;;;;;;;0.82;0.00;;;3.50;81.60;;;;;;22663813;26;20034;-38
2024/04/20 20:20:10;;;;;;;0.10;0.00;;;3.30;81.10;;;;;;22705858;26;20034;-38
2024/04/20 20:30:15;;;;;;;0.10;0.00;;;3.00;82.50;;;;;;22704129;26;20041;-38
2024/04/20 20:40:18;;;;;;;0.17;0.00;;;2.60;82.90;;;;;;22656602;26;20030;-39
2024/04/20 20:50:20;;;;;;;0.00;0.00;;;2.50;84.50;;;;;;22651052;26;20021;-38
2024/04/20 21:00:22;;;;;;;0.10;0.00;;;2.30;83.40;;;;;;22672319;26;20088;-38
2024/04/20 21:10:24;;;;;;;0.00;0.00;;;2.30;82.90;;;;;;22702887;26;20034;-38
2024/04/20 21:20:28;;;;;;;0.20;0.00;;;2.20;82.30;;;;;;22702496;26;20134;-37
2024/04/20 21:30:29;;;;;;;0.00;0.00;;;2.00;82.60;;;;;;22701647;26;20026;-37
2024/04/20 21:40:31;;;;;;;2.13;0.10;;;2.10;81.70;;;;;;22663480;26;20009;-37
2024/04/20 21:50:33;;;;;;;0.13;0.00;;;2.20;82.00;;;;;;22663835;26;20022;-37
2024/04/20 22:00:39;;;;;;;0.17;0.00;;;2.10;81.70;;;;;;22682293;26;20085;-37
2024/04/20 22:10:44;;;;;;;2.08;0.00;;;2.10;80.80;;;;;;22671668;26;20026;-38
2024/04/20 22:20:46;;;;;;;0.08;0.00;;;2.00;82.10;;;;;;22680787;26;20155;-37
2024/04/20 22:30:48;;;;;;;0.00;0.00;;;1.90;81.80;;;;;;22712710;26;20026;-37
2024/04/20 22:40:51;;;;;;;0.10;0.00;;;1.80;82.40;;;;;;22694474;26;20026;-38
2024/04/20 22:51:03;;;;;;;0.00;0.00;;;1.80;82.50;;;;;;22658429;26;20026;-38
2024/04/20 23:01:05;;;;;;;0.30;0.03;;;1.80;82.60;;;;;;22678615;26;20382;-38
2024/04/20 23:11:07;;;;;;;0.30;0.00;;;1.50;84.40;;;;;;22710069;26;20026;-38
2024/04/20 23:21:09;;;;;;;0.00;0.00;;;1.40;83.50;;;;;;22710262;26;20029;-38
2024/04/20 23:31:11;;;;;;;0.20;0.00;;;1.40;84.50;;;;;;22662967;26;1217542;-37
2024/04/20 23:41:12;;;;;;;1.27;0.00;;;1.30;84.20;;;;;;22662990;26;20029;-38
2024/04/20 23:51:14;;;;;;;0.03;0.00;;;1.40;84.10;;;;;;22656785;26;20035;-38
